Snake Valley, Nevada Weather observations

Data are for 10 minute period ending at time listed.
 Day   Time   Solar   Ave.   Ave.  Ave.  Vector  Max.   Baro.   Total    
  of    of     Rad.   Air    Rel.  Wind   Wind   Wind  Press.  Precip.   
Year   Day            Temp.  Hum.  Speed  Dir.   Gust                    
2015   (PST)  Kw/m2    F      %     mph   deg.    mph    mb.     in.     
-------------------------------------------------------------------------
 147    0:00   0.00   51.0    86    3.0   116     3.9   843.2    0.00 
 147    0:10   0.00   50.7    86    4.7   148     7.5   843.1    0.00 
 147    0:20   0.00   50.0    86    2.1   142     3.4   843.0    0.00 
 147    0:30   0.00   49.2    87    2.9   200     5.4   843.0    0.00 
 147    0:40   0.00   47.6    89    4.2   254     5.4   843.0    0.00 
 147    0:50   0.00   46.7    89    3.0   245     4.1   842.8    0.00 
 147    1:00   0.00   45.6    90    3.2   278     4.1   842.7    0.00 
 147    1:10   0.00   44.7    91    3.9   288     4.5   842.7    0.00 
 147    1:20   0.00   44.7    92    3.7   289     4.3   842.7    0.00 
 147    1:30   0.00   44.3    92    4.7   289     6.4   842.6    0.00 
 147    1:40   0.00   44.6    93    4.2   286     6.1   842.5    0.00 
 147    1:50   0.00   44.3    93    2.1   296     3.1   842.3    0.00 
 147    2:00   0.00   45.4    93    2.6   291     3.9   842.3    0.00 
 147    2:10   0.00   46.4    93    3.6   282     4.5   842.3    0.00 
 147    2:20   0.00   44.9    91    2.6   201     3.5   842.3    0.00 
 147    2:30   0.00   44.2    92    2.8   172     4.4   842.3    0.00 
 147    2:40   0.00   43.7    92    2.1   189     3.9   842.3    0.00 
 147    2:50   0.00   43.3    92    1.5   208     2.3   842.2    0.00 
 147    3:00   0.00   43.9    92    2.6   246     3.4   842.1    0.00 
 147    3:10   0.00   44.2    93    3.5   243     4.0   842.0    0.00 
 147    3:20   0.00   44.1    90    3.4   293     4.0   842.0    0.00 
 147    3:30   0.00   43.2    91    3.3   291     5.1   842.1    0.00 
 147    3:40   0.00   43.8    90    2.0   326     4.2   842.1    0.00 
 147    3:50   0.00   44.1    91    2.3   326     4.9   842.1    0.00 
 147    4:00   0.00   43.9    91    2.9   267     5.0   842.6    0.00 
 147    4:10   0.00   45.4    92    4.5   146     6.7   842.6    0.00 
 147    4:20   0.01   46.8    88    5.4   144     7.2   842.5    0.00 
 147    4:30   0.02   47.6    86    4.6   153     6.6   842.5    0.00 
 147    4:40   0.03   47.2    88    4.1   178     6.1   842.5    0.00 
 147    4:50   0.07   48.3    88    2.0   142     4.8   842.4    0.00 
 147    5:00   0.08   48.5    86    3.8   142     7.0   842.4    0.00 
 147    5:10   0.07   48.4    86    3.2   146     4.4   842.4    0.00 
 147    5:20   0.06   47.9    87    2.3   211     5.0   842.5    0.00 
 147    5:30   0.09   47.6    88    2.5   251     5.0   842.5    0.00 
 147    5:40   0.20   50.1    88    3.5   232     7.3   842.4    0.00 
 147    5:50   0.22   53.1    77    2.8   240     7.8   842.6    0.00 
 147    6:00   0.25   54.0    78    4.5   337     6.8   842.7    0.00 
 147    6:10   0.24   52.5    83    5.7    20     8.7   842.9    0.00 
 147    6:20   0.30   52.8    84    6.7    33     9.3   843.0    0.00 
 147    6:30   0.20   52.9    83    5.8    28     8.0   843.0    0.00 
 147    6:40   0.21   52.8    85    6.0    33     7.9   843.2    0.00 
 147    6:50   0.21   53.1    84    4.8    24     7.8   843.3    0.00 
 147    7:00   0.21   53.5    82    3.8   356     5.5   843.5    0.00 
 147    7:10   0.28   54.3    79    3.1   357     4.2   843.4    0.00 
 147    7:20   0.34   55.2    76    4.0   296     6.9   843.3    0.00 
 147    7:30   0.33   55.6    75    2.6   281     4.5   843.3    0.00 
 147    7:40   0.26   55.9    72    3.5   294     5.6   843.3    0.00 
 147    7:50   0.37   56.2    72    3.2   293     5.2   843.3    0.00 
 147    8:00   0.58   57.6    68    1.5   326     5.0   843.2    0.00 
 147    8:10   0.56   58.4    65    1.7   240     4.1   843.1    0.00 
 147    8:20   0.37   59.0    64    1.3   299     3.4   843.1    0.00 
 147    8:30   0.54   58.5    66    2.0    24     4.2   843.1    0.00 
 147    8:40   0.76   59.8    64    2.7    59     5.2   843.2    0.00 
 147    8:50   0.79   60.5    61    2.8     6     6.1   843.1    0.00 
 147    9:00   0.82   61.5    59    2.0    12     4.8   843.0    0.00 
 147    9:10   0.84   62.3    56    3.2   110     7.1   842.9    0.00 
 147    9:20   0.87   62.8    53    1.9   199     4.7   842.9    0.00 
 147    9:30   0.90   63.6    53    2.4    53     7.7   842.8    0.00 
 147    9:40   0.92   64.1    51    2.2    57     4.7   842.6    0.00 
 147    9:50   0.95   64.2    49    2.3   345     5.3   842.5    0.00 
 147   10:00   0.98   64.8    49    2.1    39     4.0   842.3    0.00 
 147   10:10   1.03   65.7    50    2.5   307     7.6   842.3    0.00 
 147   10:20   0.34   64.8    52    4.5    20     7.4   842.2    0.00 
 147   10:30   0.76   64.4    54    4.4     2     7.7   842.2    0.00 
 147   10:40   0.17   63.9    52    4.2     3     8.6   842.2    0.00 
 147   10:50   0.19   63.6    54    2.8    28     6.9   842.1    0.00 
 147   11:00   0.13   63.5    54    2.7    88     5.6   842.1    0.02 
 147   11:10   0.13   63.0    58    2.6    89     6.8   842.2    0.02 
 147   11:20   0.12   61.0    69    3.3    63     5.5   842.2    0.00 
 147   11:30   0.08   61.2    64    0.8    46     2.3   842.3    0.00 
 147   11:40   0.04   61.7    63    2.8   348     3.8   842.4    0.00 
 147   11:50   0.03   61.5    62    4.6   334    13.7   842.5    0.00 
 147   12:00   0.01   58.9    65   10.5     6    18.9   842.8    0.03 
 147   12:10   0.01   56.1    73    8.2   294    15.9   843.3    0.08 
 147   12:20   0.02   55.1    76    8.9   321    13.4   843.1    0.02 
 147   12:30   0.03   54.1    79    9.0   303    13.6   842.7    0.02 
 147   12:40   0.04   54.7    80    6.5   233    11.9   842.7    0.00 
 147   12:50   0.04   55.1    80    7.6   215    13.2   842.8    0.00 
 147   13:00   0.08   55.8    80    4.7   130    10.4   842.6    0.00 
 147   13:10   0.44   55.6    83    6.7    39     9.7   842.4    0.00 
 147   13:20   0.39   56.9    77    7.1    23    10.0   842.3    0.00 
 147   13:30   0.54   57.8    75    6.6    18     9.4   841.9    0.00 
 147   13:40   0.60   58.9    69    5.1    22     7.4   841.6    0.00 
 147   13:50   0.45   60.4    65    1.8    30     5.6   841.4    0.00 
 147   14:00   0.38   61.1    68    3.2    62     5.5   841.4    0.00 
 147   14:10   0.37   60.8    67    4.5    68     6.8   841.5    0.00 
 147   14:20   0.28   60.9    66    2.8    72     4.5   841.7    0.00 
 147   14:30   0.20   60.5    68    4.4   132     6.2   841.7    0.00 
 147   14:40   0.12   59.8    71    3.6   167     6.6   841.9    0.00 
 147   14:50   0.04   58.9    75    2.4   242     7.9   842.5    0.00 
 147   15:00   0.02   57.1    74   16.3   306    29.6   842.9    0.01 
 147   15:10   0.01   54.4    78   18.8   316    26.2   843.2    0.00 
 147   15:20   0.02   53.8    79   17.2   323    25.9   843.0    0.01 
 147   15:30   0.02   53.4    81   19.0   322    27.0   842.9    0.01 
 147   15:40   0.01   53.3    80   19.0   318    25.8   843.0    0.01 
 147   15:50   0.01   52.8    82   17.8   316    24.4   843.7    0.01 
 147   16:00   0.01   52.7    82   14.3   302    19.6   844.4    0.02 
 147   16:10   0.01   52.3    82   10.7   330    16.7   843.9    0.03 
 147   16:20   0.01   51.8    83    6.5   295    11.6   843.7    0.00 
 147   16:30   0.02   51.7    84    2.6   264     4.4   843.7    0.00 
 147   16:40   0.03   51.7    85    2.0    62     4.2   843.6    0.00 
 147   16:50   0.03   52.0    86    4.6   112     7.4   844.1    0.00 
 147   17:00   0.08   51.8    86    4.7    90     6.9   843.9    0.00 
 147   17:10   0.13   52.5    86    5.8   107     8.8   843.4    0.00 
 147   17:20   0.14   52.9    85    3.7   100     6.1   843.7    0.01 
 147   17:30   0.16   53.3    82    3.1    92     4.6   843.7    0.00 
 147   17:40   0.10   53.7    81    1.9   104     3.6   843.8    0.00 
 147   17:50   0.04   53.6    80    2.3   105     3.6   843.9    0.00 
 147   18:00   0.03   53.4    80    3.8   178     7.0   844.0    0.00 
 147   18:10   0.02   53.3    82    6.2   186     8.0   844.0    0.00 
 147   18:20   0.01   53.0    84    5.7   196     8.6   844.0    0.00 
 147   18:30   0.01   52.8    84    4.8   194     7.1   843.9    0.00 
 147   18:40   0.01   52.7    84    4.3   194     5.6   843.9    0.01 
 147   18:50   0.01   52.1    86    4.1   214     6.1   844.0    0.00 
 147   19:00   0.00   52.1    86    4.5   209     7.1   844.1    0.00 
 147   19:10   0.00   51.9    86    5.8    28    15.0   844.2    0.00 
 147   19:20   0.00   52.3    84    5.7   122     7.5   843.9    0.00 
 147   19:30   0.00   51.8    86    3.9   114     5.5   844.0    0.00 
 147   19:40   0.00   51.6    88    5.9   113     9.6   843.9    0.00 
 147   19:50   0.00   51.8    86    9.6   157    13.3   843.7    0.00 
 147   20:00   0.00   52.6    80    9.4   158    12.9   843.5    0.00 
 147   20:10   0.00   52.2    84    4.5   197     8.6   843.2    0.00 
 147   20:20   0.00   51.3    86    1.5    94     3.8   843.4    0.00 
 147   20:30   0.00   50.8    88    5.1   333     7.6   843.5    0.00 
 147   20:40   0.00   50.5    88    5.4    18     7.9   843.3    0.00 
 147   20:50   0.00   49.7    89    4.4    21     6.4   843.2    0.00 
 147   21:00   0.00   49.9    89    5.9    12     8.2   843.0    0.00 
 147   21:10   0.00   49.8    88    4.3   326     7.8   842.9    0.00 
 147   21:20   0.00   49.0    88    5.5   301     7.4   843.0    0.00 
 147   21:30   0.00   48.3    89    5.6   292     7.8   843.2    0.00 
 147   21:40   0.00   48.4    87    5.2   280     8.1   843.3    0.00 

Return to Snake Valley graphs page.


Western Regional Climate Center,wrcc@dri.edu